V/Λ SELECT: Month and Year
OR > Month
Monthly Climatological Summary for Jun 2012
Name: www.delerius-weather.com City: Winterton State: North Lincolnshire
Elevation: 42 m Lat: N 53° 39' 10" Lon: W 000° 36' 49"
Temperature (°C), Rain (mm), Wind Speed (mph)
Heat Cool Avg
Mean Deg Deg Wind Dom
Day Temp High Time Low Time Days Days Rain Speed High Time Dir
----------------------------------------------------------------------------------
1 12.2 14.9 21:00 10.3 02:15 14.4 0.0 2.2 5.0 15.0 05:45 E
2 11.7 15.6 21:00 8.6 02:15 14.4 0.0 0.0 10.6 24.0 14:15 E
3 9.4 11.3 21:00 7.9 02:15 14.4 0.0 9.8 8.2 22.0 09:15 NE
4 8.7 11.8 21:00 5.6 02:15 14.4 0.0 3.8 9.0 31.0 11:00 NNE
5 7.9 15.8 21:00 3.5 02:15 14.4 0.0 10.2 10.0 29.0 21:00 SE
6 12.6 20.3 21:00 9.2 02:15 14.4 0.0 2.2 7.6 27.0 01:00 SSW
7 13.2 19.1 21:00 9.4 02:15 14.4 0.0 5.2 12.3 36.0 21:30 SSE
8 13.3 15.1 21:00 11.2 02:15 14.4 0.0 1.0 21.7 40.0 22:45 SW
9 13.7 17.4 21:00 10.3 02:15 14.4 0.0 4.8 15.8 39.0 01:00 WSW
10 12.6 16.7 21:00 7.2 02:15 14.4 0.0 0.0 6.9 16.0 01:00 ENE
11 10.7 12.3 21:00 9.6 02:15 14.4 0.0 0.0 10.4 22.0 17:00 NE
12 11.6 13.5 21:00 9.9 02:15 14.4 0.0 1.8 6.7 22.0 10:15 NNE
13 9.4 13.9 21:00 4.6 02:15 14.4 0.0 3.0 2.4 11.0 10:45 ENE
14 12.0 15.6 21:00 9.3 02:15 14.4 0.0 1.2 10.3 26.0 15:00 ESE
15 13.8 19.6 21:00 10.4 02:15 14.4 0.0 10.2 13.2 38.0 16:45 SSW
16 12.8 16.4 21:00 10.7 02:15 14.4 0.0 1.6 11.2 34.0 16:15 S
17 13.9 17.6 21:00 10.9 02:15 14.4 0.0 0.0 10.6 34.0 07:45 SSW
18 14.1 16.7 21:00 11.6 02:15 14.4 0.0 5.0 4.4 22.0 18:00 ESE
19 14.6 21.3 21:00 9.1 02:15 14.4 0.0 2.6 4.0 20.0 11:15 E
20 14.0 18.6 21:00 10.4 02:15 14.4 0.0 8.2 4.3 20.0 18:30 ENE
21 14.4 17.2 21:00 12.1 02:15 14.4 0.0 1.0 5.0 25.0 00:15 ENE
22 13.3 15.7 21:00 10.8 02:15 14.4 0.0 0.0 5.1 29.0 00:16 ENE
23 14.1 19.4 21:00 10.4 02:15 14.4 0.0 5.2 4.3 38.0 12:45 SSE
24 13.2 18.6 21:00 9.6 02:15 14.4 0.0 0.2 3.6 31.0 17:45 WSW
25 13.2 15.3 21:00 10.9 02:15 14.4 0.0 0.0 6.8 20.0 03:30 E
26 11.7 18.2 21:00 6.5 02:15 14.4 0.0 1.0 7.9 24.0 14:45 ESE
27 18.4 24.1 21:00 15.1 02:15 14.4 0.0 2.0 1.3 14.0 16:00 ESE
28 17.9 22.0 21:00 15.9 02:15 14.4 0.0 4.4 2.7 24.0 17:15 SSE
29 16.4 21.3 21:00 13.3 02:15 14.4 0.0 0.2 4.6 32.0 18:30 S
30 16.0 21.6 21:00 12.7 02:15 14.4 0.0 4.4 5.8 29.0 18:15 SSE
----------------------------------------------------------------------------------
13.0 24.1 1 3.5 1 432.0 0.0 91.2 7.3 40.0 8 SE
Max >= 27.0: 0
Max <= 0.0: 0
Min <= 0.0: 0
Min <= -18.0: 0
Max Rain: 10.2 on day 5
Days of Rain: 24 (>= 0.2 mm) 16 (>= 2.0 mm) 0 (>= 20.0 mm)
Heat Base: 18.3 Cool Base: 18.3 Method: Integration